Time;durP1;ratioP1;P1;durP2;ratioP2;P2;SDS_P1;SDS_P2;PMS_P1;PMS_P2;Temp;Humidity;BMP_temperature;BMP_pressure;BME280_temperature;BME280_humidity;BME280_pressure;Samples;Min_cycle;Max_cycle;Signal;HPM_P1;HPM_P2
2022/08/16 00:01:54;;;;;;;9.68;8.25;;;21.80;99.90;;;;;;5050414;28;20485;-74
2022/08/16 00:04:20;;;;;;;9.35;7.72;;;21.70;99.90;;;;;;5051355;28;20021;-74
2022/08/16 00:06:46;;;;;;;11.90;8.75;;;21.70;99.90;;;;;;5065271;28;20167;-74
2022/08/16 00:09:12;;;;;;;10.80;9.70;;;21.70;99.90;;;;;;5046841;28;20544;-74
2022/08/16 00:11:39;;;;;;;9.90;9.00;;;21.60;99.90;;;;;;5040185;28;20021;-74
2022/08/16 00:14:08;;;;;;;9.93;8.85;;;21.60;99.90;;;;;;5036674;28;20037;-74
2022/08/16 00:16:35;;;;;;;14.43;9.73;;;21.50;99.90;;;;;;5051025;28;20032;-74
2022/08/16 00:19:01;;;;;;;11.82;10.55;;;21.50;99.90;;;;;;5058037;28;20028;-74
2022/08/16 00:21:27;;;;;;;13.85;10.13;;;21.50;99.90;;;;;;5047889;28;20381;-74
2022/08/16 00:23:53;;;;;;;13.10;9.35;;;21.40;99.90;;;;;;5053750;28;20032;-74
2022/08/16 00:26:18;;;;;;;11.75;10.20;;;21.40;99.90;;;;;;5054818;28;20460;-74
2022/08/16 00:28:44;;;;;;;10.40;9.40;;;21.50;99.90;;;;;;5038677;28;20024;-74
2022/08/16 00:31:10;;;;;;;9.32;8.43;;;21.40;99.90;;;;;;5043933;28;20532;-74
2022/08/16 00:33:35;;;;;;;12.38;7.88;;;21.50;99.90;;;;;;5054317;28;20029;-74
2022/08/16 00:36:01;;;;;;;9.15;8.25;;;21.50;99.90;;;;;;5054982;28;20066;-74
2022/08/16 00:38:27;;;;;;;10.20;8.65;;;21.50;99.90;;;;;;5055505;28;20031;-74
2022/08/16 00:40:53;;;;;;;9.45;7.70;;;21.40;99.90;;;;;;5049386;28;20032;-74
2022/08/16 00:43:27;;;;;;;10.30;8.50;;;21.40;99.90;;;;;;5056294;28;20072;-74
2022/08/16 00:46:18;;;;;;;11.82;8.82;;;21.30;99.90;;;;;;5058255;28;20017;-74
2022/08/16 00:48:44;;;;;;;11.95;9.27;;;21.30;99.90;;;;;;5054806;28;20444;-74
2022/08/16 00:51:13;;;;;;;10.73;8.73;;;21.30;99.90;;;;;;5039650;28;20048;-74
2022/08/16 00:53:39;;;;;;;11.73;8.50;;;21.30;99.90;;;;;;5024418;28;20074;-74
2022/08/16 00:56:10;;;;;;;8.30;7.50;;;21.30;99.90;;;;;;5044733;28;20031;-74
2022/08/16 00:58:42;;;;;;;10.85;8.27;;;21.30;99.90;;;;;;5029032;28;20106;-74
2022/08/16 01:01:09;;;;;;;9.57;8.63;;;21.30;99.90;;;;;;5035088;28;20079;-74
2022/08/16 01:03:38;;;;;;;11.82;8.75;;;21.30;99.90;;;;;;5040216;28;20025;-74
2022/08/16 01:06:05;;;;;;;9.00;7.80;;;21.30;99.90;;;;;;5041010;28;20047;-74
2022/08/16 01:08:34;;;;;;;8.98;7.95;;;21.30;99.90;;;;;;5037447;28;20128;-74
2022/08/16 01:11:01;;;;;;;8.90;7.68;;;21.30;99.90;;;;;;5050688;28;20032;-74
2022/08/16 01:13:30;;;;;;;9.27;8.38;;;21.30;99.90;;;;;;5028328;28;20493;-74
2022/08/16 01:16:07;;;;;;;8.93;7.38;;;21.30;99.90;;;;;;5046204;28;20122;-74
2022/08/16 01:18:56;;;;;;;9.85;7.95;;;21.20;99.90;;;;;;5028322;28;20040;-74
2022/08/16 01:21:24;;;;;;;8.43;7.60;;;21.20;99.90;;;;;;5045517;28;20049;-74
2022/08/16 01:24:08;;;;;;;10.10;7.13;;;21.20;99.90;;;;;;5025583;28;20034;-74
2022/08/16 01:26:35;;;;;;;8.07;7.25;;;21.20;99.90;;;;;;5046465;28;20058;-73
2022/08/16 01:29:06;;;;;;;7.63;6.78;;;21.20;99.90;;;;;;5038091;28;20096;-74
2022/08/16 01:31:32;;;;;;;8.05;7.22;;;21.20;99.90;;;;;;5042795;28;20021;-74
2022/08/16 01:33:58;;;;;;;8.23;7.43;;;21.20;99.90;;;;;;5043032;28;20021;-74
2022/08/16 01:36:24;;;;;;;8.20;6.95;;;21.20;99.90;;;;;;5039479;28;20039;-74
2022/08/16 01:38:50;;;;;;;9.30;6.72;;;21.20;99.90;;;;;;5039392;28;20041;-74
2022/08/16 01:41:23;;;;;;;9.30;6.88;;;21.10;99.90;;;;;;5039937;28;20030;-74
2022/08/16 01:43:51;;;;;;;8.10;7.30;;;21.10;99.90;;;;;;5033327;28;20033;-74
2022/08/16 01:46:27;;;;;;;8.40;7.03;;;21.20;99.90;;;;;;5047570;28;20021;-74
2022/08/16 01:49:02;;;;;;;8.30;7.50;;;21.10;99.90;;;;;;5041298;28;20057;-74
2022/08/16 01:51:28;;;;;;;8.07;7.03;;;21.10;99.90;;;;;;5040068;28;20155;-74
2022/08/16 01:53:54;;;;;;;7.63;7.03;;;21.10;99.90;;;;;;5046550;28;20154;-74
2022/08/16 01:56:21;;;;;;;8.80;7.90;;;21.10;99.90;;;;;;5038753;28;20527;-74
2022/08/16 01:58:47;;;;;;;7.93;7.13;;;21.00;99.90;;;;;;5041247;28;20090;-74
2022/08/16 02:01:13;;;;;;;10.48;7.80;;;21.00;99.90;;;;;;5028505;28;20448;-74
2022/08/16 02:03:39;;;;;;;8.23;7.53;;;21.00;99.90;;;;;;5033499;28;20040;-74
2022/08/16 02:06:06;;;;;;;10.40;7.70;;;21.00;99.90;;;;;;5028514;28;20029;-73
2022/08/16 02:08:32;;;;;;;12.15;7.93;;;20.90;99.90;;;;;;5024758;28;20013;-75
2022/08/16 02:10:58;;;;;;;7.55;6.95;;;20.90;99.90;;;;;;5045494;28;20040;-74
2022/08/16 02:13:24;;;;;;;8.27;7.47;;;20.90;99.90;;;;;;5040152;28;20378;-74
2022/08/16 02:15:50;;;;;;;7.30;6.65;;;20.90;99.90;;;;;;5040200;28;20030;-75
2022/08/16 02:18:16;;;;;;;9.18;6.72;;;20.90;99.90;;;;;;5040527;28;20036;-75
2022/08/16 02:20:48;;;;;;;7.07;6.43;;;20.90;99.90;;;;;;5043001;28;20037;-74
2022/08/16 02:23:14;;;;;;;8.95;6.82;;;20.80;99.90;;;;;;5028379;28;20100;-75
2022/08/16 02:25:40;;;;;;;7.43;6.65;;;20.80;99.90;;;;;;5041065;28;20037;-74
2022/08/16 02:28:05;;;;;;;7.15;6.45;;;20.80;99.90;;;;;;5042999;28;20017;-75
2022/08/16 02:30:32;;;;;;;9.38;6.35;;;20.80;99.90;;;;;;5028123;28;20036;-74
2022/08/16 02:32:58;;;;;;;6.53;5.93;;;20.80;99.90;;;;;;5024146;28;20025;-75
2022/08/16 02:35:25;;;;;;;7.38;5.93;;;20.80;99.90;;;;;;5027187;28;20515;-74
2022/08/16 02:37:52;;;;;;;10.25;6.47;;;20.80;99.90;;;;;;5041491;28;20025;-74
2022/08/16 02:40:20;;;;;;;7.65;6.45;;;20.80;99.90;;;;;;5030501;28;20079;-74
2022/08/16 02:42:47;;;;;;;11.07;6.15;;;20.70;99.90;;;;;;5042178;28;20097;-74
2022/08/16 02:45:13;;;;;;;6.78;6.20;;;20.70;99.90;;;;;;5031772;28;20392;-74
2022/08/16 02:47:39;;;;;;;7.30;6.60;;;20.70;99.90;;;;;;5041498;28;20513;-74
2022/08/16 02:50:06;;;;;;;7.32;6.63;;;20.70;99.90;;;;;;5045837;28;20039;-74
2022/08/16 02:52:32;;;;;;;11.85;7.25;;;20.70;99.90;;;;;;5043040;28;20139;-74
2022/08/16 02:54:57;;;;;;;6.85;6.18;;;20.70;99.90;;;;;;5043833;28;20444;-74
2022/08/16 02:57:23;;;;;;;7.45;6.60;;;20.70;99.90;;;;;;5029052;28;20025;-74
2022/08/16 02:59:49;;;;;;;7.43;6.70;;;20.70;99.90;;;;;;5040575;28;20593;-74
2022/08/16 03:02:16;;;;;;;8.38;6.85;;;20.60;99.90;;;;;;5042144;28;20060;-74
2022/08/16 03:04:42;;;;;;;7.70;6.88;;;20.60;99.90;;;;;;5045318;28;20053;-74
2022/08/16 03:07:09;;;;;;;6.80;6.10;;;20.60;99.90;;;;;;5046100;28;20018;-74
2022/08/16 03:09:35;;;;;;;7.65;6.75;;;20.60;99.90;;;;;;5040497;28;20029;-74
2022/08/16 03:12:01;;;;;;;7.55;6.32;;;20.60;99.90;;;;;;5034929;28;20018;-74
2022/08/16 03:14:27;;;;;;;7.38;6.68;;;20.60;99.90;;;;;;5047877;28;20025;-75
2022/08/16 03:16:53;;;;;;;7.65;6.85;;;20.60;99.90;;;;;;5047877;28;20045;-74
2022/08/16 03:19:19;;;;;;;7.75;6.90;;;20.50;99.90;;;;;;5035403;28;20056;-75
2022/08/16 03:21:45;;;;;;;8.50;6.80;;;20.50;99.90;;;;;;5045239;28;20025;-74
2022/08/16 03:24:11;;;;;;;7.93;6.82;;;20.40;99.90;;;;;;5047142;28;20509;-74
2022/08/16 03:26:37;;;;;;;8.07;7.00;;;20.40;99.90;;;;;;5043943;28;20052;-74
2022/08/16 03:29:03;;;;;;;9.10;7.32;;;20.40;99.90;;;;;;5044354;28;20059;-74
2022/08/16 03:31:29;;;;;;;8.38;7.68;;;20.40;99.90;;;;;;5047692;28;20477;-74
2022/08/16 03:33:55;;;;;;;7.85;6.95;;;20.40;99.90;;;;;;5027199;28;20035;-73
2022/08/16 03:36:21;;;;;;;8.38;7.43;;;20.40;99.90;;;;;;5045098;28;20013;-74
2022/08/16 03:38:47;;;;;;;8.23;7.53;;;20.40;99.90;;;;;;5044972;28;20485;-74
2022/08/16 03:41:13;;;;;;;10.10;7.65;;;20.30;99.90;;;;;;5050021;28;20021;-74
2022/08/16 03:43:39;;;;;;;8.50;7.63;;;20.30;99.90;;;;;;5040263;28;21632;-74
2022/08/16 03:46:05;;;;;;;7.68;6.95;;;20.30;99.90;;;;;;5044314;28;20417;-74
2022/08/16 03:48:34;;;;;;;8.50;7.70;;;20.30;99.90;;;;;;5047743;28;20461;-74
2022/08/16 03:51:01;;;;;;;8.32;7.53;;;20.40;99.90;;;;;;5043697;28;20480;-74
2022/08/16 03:53:28;;;;;;;9.98;7.93;;;20.30;99.90;;;;;;5047113;28;20024;-74
2022/08/16 03:55:54;;;;;;;8.93;8.02;;;20.30;99.90;;;;;;5041326;28;20063;-74
2022/08/16 03:58:20;;;;;;;9.07;8.00;;;20.30;99.90;;;;;;5025294;28;20378;-74
2022/08/16 04:00:48;;;;;;;10.40;7.57;;;20.30;99.90;;;;;;5041538;28;20040;-74
2022/08/16 04:03:14;;;;;;;9.18;8.35;;;20.20;99.90;;;;;;5040978;28;20021;-74
2022/08/16 04:05:45;;;;;;;8.45;7.55;;;20.20;99.90;;;;;;5037069;28;20074;-74
2022/08/16 04:08:11;;;;;;;9.48;8.48;;;20.20;99.90;;;;;;5044653;28;20033;-73
2022/08/16 04:10:37;;;;;;;9.00;8.10;;;20.20;99.90;;;;;;5043283;28;20104;-74
2022/08/16 04:13:03;;;;;;;9.43;7.32;;;20.20;99.90;;;;;;5048037;28;20120;-73
2022/08/16 04:15:29;;;;;;;8.43;7.18;;;20.20;99.90;;;;;;5047975;28;20060;-73
2022/08/16 04:17:56;;;;;;;9.27;7.47;;;20.10;99.90;;;;;;5049482;28;20025;-73
2022/08/16 04:20:23;;;;;;;8.98;7.55;;;20.10;99.90;;;;;;5041562;28;20040;-73
2022/08/16 04:22:49;;;;;;;10.20;7.82;;;20.20;99.90;;;;;;5047356;28;20052;-73
2022/08/16 04:25:15;;;;;;;9.02;8.23;;;20.20;99.90;;;;;;5033767;28;20067;-72
2022/08/16 04:27:41;;;;;;;7.47;6.68;;;20.10;99.90;;;;;;5029862;28;20017;-74
2022/08/16 04:30:10;;;;;;;8.38;7.50;;;20.20;99.90;;;;;;5040302;28;20658;-73
2022/08/16 04:32:37;;;;;;;9.25;8.38;;;20.10;99.90;;;;;;5036099;28;20033;-74
2022/08/16 04:35:08;;;;;;;8.82;8.00;;;20.10;99.90;;;;;;5041297;28;20068;-74
2022/08/16 04:37:34;;;;;;;8.40;7.63;;;20.10;99.90;;;;;;5040638;28;20092;-74
2022/08/16 04:39:59;;;;;;;9.20;8.07;;;20.10;99.90;;;;;;5043446;28;20485;-74
2022/08/16 04:42:26;;;;;;;8.50;7.70;;;20.10;99.90;;;;;;5045336;28;20088;-73
2022/08/16 04:44:54;;;;;;;8.18;7.47;;;20.10;99.90;;;;;;5025686;28;20025;-73
2022/08/16 04:47:20;;;;;;;8.68;7.85;;;20.10;99.90;;;;;;5047536;28;20032;-74
2022/08/16 04:49:46;;;;;;;11.45;8.00;;;20.10;99.90;;;;;;5042136;28;20029;-73
2022/08/16 04:52:11;;;;;;;7.78;7.00;;;20.10;99.90;;;;;;5046977;28;20027;-74
2022/08/16 04:54:39;;;;;;;7.93;6.45;;;20.10;99.90;;;;;;5049502;28;20112;-73
2022/08/16 04:57:05;;;;;;;7.57;6.85;;;20.10;99.90;;;;;;5047774;28;20213;-74
2022/08/16 04:59:30;;;;;;;7.30;6.20;;;20.10;99.90;;;;;;5043283;28;20120;-73
2022/08/16 05:01:56;;;;;;;8.05;7.15;;;20.00;99.90;;;;;;5031102;28;20493;-73
2022/08/16 05:04:23;;;;;;;9.98;7.82;;;20.00;99.90;;;;;;5045628;28;20072;-73
2022/08/16 05:06:49;;;;;;;8.43;7.63;;;20.00;99.90;;;;;;5023966;28;20551;-73
2022/08/16 05:09:15;;;;;;;8.15;7.45;;;20.00;99.90;;;;;;5024282;28;20132;-73
2022/08/16 05:11:41;;;;;;;9.45;8.50;;;20.00;99.90;;;;;;5047335;28;20108;-74
2022/08/16 05:14:06;;;;;;;9.20;7.88;;;20.00;99.90;;;;;;5029554;28;20030;-74
2022/08/16 05:16:32;;;;;;;9.00;7.90;;;20.00;99.90;;;;;;5041468;28;20021;-74
2022/08/16 05:19:01;;;;;;;8.45;7.63;;;20.00;99.90;;;;;;5040289;28;20099;-73
2022/08/16 05:21:27;;;;;;;11.05;7.57;;;20.00;99.90;;;;;;5041833;28;20088;-74
2022/08/16 05:23:54;;;;;;;11.40;9.35;;;20.00;99.90;;;;;;5045713;28;20107;-72
2022/08/16 05:26:20;;;;;;;9.88;8.48;;;19.90;99.90;;;;;;5041837;28;20083;-72
2022/08/16 05:28:46;;;;;;;9.68;8.05;;;19.90;99.90;;;;;;5039613;28;20474;-72
2022/08/16 05:31:12;;;;;;;11.00;9.07;;;19.90;99.90;;;;;;5021970;28;20028;-73
2022/08/16 05:33:38;;;;;;;9.90;8.38;;;19.90;99.90;;;;;;5041877;28;20456;-74
2022/08/16 05:36:04;;;;;;;12.07;8.90;;;20.00;99.90;;;;;;5045515;28;20025;-74
2022/08/16 05:38:30;;;;;;;11.73;8.90;;;20.00;99.90;;;;;;5049005;28;20037;-74
2022/08/16 05:40:57;;;;;;;12.82;9.52;;;20.00;99.90;;;;;;5043256;28;20583;-74
2022/08/16 05:43:23;;;;;;;10.27;8.27;;;19.90;99.90;;;;;;5043949;28;20037;-73
2022/08/16 05:45:50;;;;;;;9.25;8.45;;;19.90;99.90;;;;;;5045272;28;20025;-72
2022/08/16 05:48:16;;;;;;;11.98;9.43;;;20.00;99.90;;;;;;5040620;28;20029;-73
2022/08/16 05:50:42;;;;;;;10.07;9.07;;;20.00;99.90;;;;;;5040164;28;20116;-73
2022/08/16 05:53:08;;;;;;;10.13;9.02;;;20.10;99.90;;;;;;5038493;28;20108;-74
2022/08/16 05:55:34;;;;;;;9.05;8.15;;;20.10;99.90;;;;;;5043743;28;20017;-73
2022/08/16 05:58:00;;;;;;;11.60;9.13;;;20.10;99.90;;;;;;5042542;28;20149;-73
2022/08/16 06:00:25;;;;;;;14.00;10.25;;;20.10;99.90;;;;;;5044455;28;20489;-73
2022/08/16 06:02:51;;;;;;;11.02;9.93;;;20.20;99.90;;;;;;5045993;28;20439;-72
2022/08/16 06:05:17;;;;;;;12.75;10.00;;;20.20;99.90;;;;;;5047662;28;20115;-72
2022/08/16 06:07:43;;;;;;;12.77;10.55;;;20.20;99.90;;;;;;5042841;28;20529;-73
2022/08/16 06:10:11;;;;;;;12.82;11.00;;;20.20;99.90;;;;;;5022704;28;20393;-73
2022/08/16 06:12:37;;;;;;;14.77;11.02;;;20.20;99.90;;;;;;5028765;28;20104;-73
2022/08/16 06:15:10;;;;;;;12.35;10.60;;;20.20;99.90;;;;;;5042967;28;20024;-73
2022/08/16 06:17:37;;;;;;;13.40;11.00;;;20.20;99.90;;;;;;5041959;28;20017;-74
2022/08/16 06:20:04;;;;;;;11.45;10.30;;;20.30;99.90;;;;;;5045687;28;20466;-74
2022/08/16 06:22:30;;;;;;;11.98;10.75;;;20.40;99.90;;;;;;5042617;28;20017;-75
2022/08/16 06:24:56;;;;;;;11.38;10.23;;;20.40;99.90;;;;;;5043195;28;20030;-75
2022/08/16 06:27:22;;;;;;;11.43;10.25;;;20.50;99.90;;;;;;5044191;28;20021;-75
2022/08/16 06:29:47;;;;;;;12.68;11.05;;;20.60;99.90;;;;;;5037396;28;20485;-75
2022/08/16 06:32:13;;;;;;;12.18;10.98;;;20.60;99.90;;;;;;5045338;28;20025;-75
2022/08/16 06:34:39;;;;;;;16.40;10.35;;;20.70;99.90;;;;;;5036249;28;20021;-74
2022/08/16 06:37:05;;;;;;;13.27;10.98;;;20.70;99.90;;;;;;5049139;28;20028;-74
2022/08/16 06:39:31;;;;;;;21.35;10.93;;;20.80;99.90;;;;;;5023728;28;20064;-76
2022/08/16 06:41:58;;;;;;;10.77;9.63;;;20.80;99.90;;;;;;5043335;28;20049;-74
2022/08/16 06:44:23;;;;;;;12.63;9.32;;;20.90;99.90;;;;;;5049577;28;20416;-74
2022/08/16 06:46:49;;;;;;;12.55;9.95;;;20.90;99.90;;;;;;5049989;28;20051;-74
2022/08/16 06:49:16;;;;;;;13.88;11.70;;;20.90;99.90;;;;;;5042848;28;20032;-73
2022/08/16 06:51:42;;;;;;;14.60;12.88;;;21.00;99.90;;;;;;5052178;28;20040;-73
2022/08/16 06:54:09;;;;;;;13.48;12.02;;;20.90;99.90;;;;;;5062475;28;20021;-73
2022/08/16 06:56:35;;;;;;;13.25;11.82;;;21.00;99.90;;;;;;5040695;28;20083;-74
2022/08/16 06:59:01;;;;;;;16.55;13.45;;;21.00;99.90;;;;;;5047335;28;20409;-74
2022/08/16 07:01:27;;;;;;;13.32;11.93;;;21.10;99.90;;;;;;5042296;28;20113;-73
2022/08/16 07:03:53;;;;;;;17.35;11.15;;;21.20;99.90;;;;;;5052579;28;20103;-73
2022/08/16 07:06:20;;;;;;;14.73;10.98;;;21.30;99.90;;;;;;5055211;28;20021;-74
2022/08/16 07:08:46;;;;;;;15.57;11.57;;;21.30;99.90;;;;;;5040430;28;20056;-74
2022/08/16 07:11:13;;;;;;;13.75;11.80;;;21.40;99.90;;;;;;5057252;28;20021;-73
2022/08/16 07:13:39;;;;;;;13.15;11.15;;;21.40;99.90;;;;;;5028740;28;20033;-74
2022/08/16 07:16:13;;;;;;;10.80;9.80;;;21.50;99.90;;;;;;5036972;28;20025;-73
2022/08/16 07:18:41;;;;;;;13.52;10.02;;;21.60;99.90;;;;;;5054468;28;20028;-73
2022/08/16 07:21:08;;;;;;;10.95;9.85;;;21.70;99.90;;;;;;5058503;28;20519;-74
2022/08/16 07:23:36;;;;;;;12.32;9.75;;;21.80;99.90;;;;;;5050317;28;20022;-74
2022/08/16 07:26:04;;;;;;;12.55;10.18;;;21.90;99.90;;;;;;5052597;28;20021;-74
2022/08/16 07:28:29;;;;;;;11.75;9.65;;;21.90;99.90;;;;;;5052060;28;20024;-73
2022/08/16 07:30:56;;;;;;;11.85;9.98;;;22.00;99.90;;;;;;5040423;28;20029;-74
2022/08/16 07:33:22;;;;;;;10.13;9.10;;;22.10;99.90;;;;;;5055136;28;20068;-73
2022/08/16 07:35:47;;;;;;;11.18;10.05;;;22.20;99.90;;;;;;5042286;28;20538;-74
2022/08/16 07:38:13;;;;;;;10.80;9.73;;;22.20;99.90;;;;;;5045722;28;20815;-74
2022/08/16 07:40:39;;;;;;;11.60;10.38;;;22.40;99.90;;;;;;5054069;28;20025;-74
2022/08/16 07:43:04;;;;;;;11.25;10.05;;;22.40;99.90;;;;;;5053923;28;20025;-73
2022/08/16 07:45:32;;;;;;;13.70;9.80;;;22.50;99.90;;;;;;5043714;28;20637;-73
2022/08/16 07:47:58;;;;;;;10.88;9.82;;;22.60;99.90;;;;;;5043381;28;20025;-73
2022/08/16 07:50:23;;;;;;;9.13;7.80;;;22.60;99.90;;;;;;5039266;28;20465;-74
2022/08/16 07:52:49;;;;;;;9.43;7.88;;;22.70;99.90;;;;;;5043368;28;20064;-75
2022/08/16 07:55:16;;;;;;;10.15;8.02;;;22.90;99.90;;;;;;5050361;28;20032;-74
2022/08/16 07:57:42;;;;;;;12.45;8.13;;;23.00;99.90;;;;;;5048328;28;20052;-76
2022/08/16 08:00:09;;;;;;;7.88;7.18;;;23.20;99.90;;;;;;5047405;28;20057;-76
2022/08/16 08:02:35;;;;;;;9.27;8.43;;;23.20;99.90;;;;;;5050772;28;20021;-75
2022/08/16 08:05:02;;;;;;;8.50;7.70;;;23.30;99.90;;;;;;5048067;28;20029;-74
2022/08/16 08:07:28;;;;;;;9.77;8.15;;;23.40;99.90;;;;;;5046938;28;20051;-76
2022/08/16 08:09:54;;;;;;;7.95;6.90;;;23.50;99.90;;;;;;5042985;28;20033;-76
2022/08/16 08:12:20;;;;;;;9.40;7.15;;;23.70;99.90;;;;;;5045343;28;20029;-76
2022/08/16 08:14:46;;;;;;;10.98;6.68;;;23.80;99.90;;;;;;5048977;28;20424;-75
2022/08/16 08:17:12;;;;;;;9.20;6.88;;;23.90;99.90;;;;;;5047188;28;20029;-76
2022/08/16 08:19:38;;;;;;;7.80;6.25;;;24.00;99.90;;;;;;5042707;28;20044;-76
2022/08/16 08:22:04;;;;;;;8.90;6.38;;;24.20;99.90;;;;;;5043870;28;20021;-76
2022/08/16 08:24:33;;;;;;;8.02;6.82;;;24.40;99.90;;;;;;5051289;28;20053;-76
2022/08/16 08:27:03;;;;;;;10.27;6.70;;;24.30;99.90;;;;;;5049101;28;20679;-76
2022/08/16 08:29:28;;;;;;;7.47;6.13;;;24.30;99.90;;;;;;5043825;28;20108;-76
2022/08/16 08:31:54;;;;;;;10.30;6.60;;;24.50;99.90;;;;;;5042789;28;20112;-76
2022/08/16 08:34:21;;;;;;;7.70;6.88;;;24.50;99.90;;;;;;5049224;28;20068;-76
2022/08/16 08:36:47;;;;;;;6.40;5.80;;;24.60;99.90;;;;;;5038864;28;20601;-76
2022/08/16 08:39:14;;;;;;;7.63;6.80;;;24.70;99.90;;;;;;5044230;28;20385;-76
2022/08/16 08:41:41;;;;;;;6.88;6.20;;;24.70;99.90;;;;;;5042121;28;20429;-76
2022/08/16 08:44:06;;;;;;;7.85;7.07;;;24.80;99.90;;;;;;5044292;28;20087;-76
2022/08/16 08:46:32;;;;;;;12.00;7.20;;;24.80;99.90;;;;;;5043177;28;20037;-76
2022/08/16 08:48:57;;;;;;;11.07;7.40;;;24.80;99.90;;;;;;5043224;28;20025;-76
2022/08/16 08:51:24;;;;;;;8.93;7.07;;;25.00;99.90;;;;;;5029740;28;20103;-74
2022/08/16 08:53:50;;;;;;;8.07;7.38;;;25.10;99.90;;;;;;5039858;28;20076;-74
2022/08/16 08:56:16;;;;;;;12.43;7.18;;;25.30;99.90;;;;;;5042601;28;20060;-74
2022/08/16 08:58:42;;;;;;;8.73;6.63;;;25.40;99.90;;;;;;5042545;28;20226;-75
2022/08/16 09:01:08;;;;;;;6.78;6.07;;;25.60;99.90;;;;;;5042256;28;20134;-74
2022/08/16 09:03:35;;;;;;;10.82;6.22;;;25.70;99.90;;;;;;5044399;28;20028;-74
2022/08/16 09:06:03;;;;;;;8.23;7.20;;;25.80;99.90;;;;;;5045836;28;20083;-75
2022/08/16 09:08:30;;;;;;;7.03;6.43;;;25.90;99.90;;;;;;5030374;28;20033;-74
2022/08/16 09:10:57;;;;;;;8.38;6.55;;;26.00;99.90;;;;;;5040961;28;20032;-74
2022/08/16 09:13:24;;;;;;;8.80;6.82;;;26.00;99.90;;;;;;5043182;28;20029;-75
2022/08/16 09:15:52;;;;;;;8.02;5.95;;;26.10;99.90;;;;;;5042033;28;20064;-74
2022/08/16 09:18:17;;;;;;;6.10;5.43;;;26.10;99.90;;;;;;5026308;28;20040;-74
2022/08/16 09:20:45;;;;;;;5.57;5.07;;;26.30;99.90;;;;;;5042169;28;20017;-74
2022/08/16 09:23:11;;;;;;;5.72;5.25;;;26.40;99.90;;;;;;5044601;28;20047;-74
2022/08/16 09:25:37;;;;;;;6.80;6.10;;;26.60;99.90;;;;;;5037985;28;20021;-74
2022/08/16 09:28:04;;;;;;;6.85;6.25;;;26.70;99.90;;;;;;5041195;28;20025;-75
2022/08/16 09:30:30;;;;;;;10.60;5.60;;;26.70;99.60;;;;;;5040046;28;20037;-75
2022/08/16 09:32:57;;;;;;;7.07;6.38;;;26.80;99.60;;;;;;5043714;28;20030;-75
2022/08/16 09:35:22;;;;;;;6.07;5.43;;;27.00;99.90;;;;;;5046748;28;20029;-75
2022/08/16 09:37:48;;;;;;;8.25;6.22;;;27.20;99.50;;;;;;5042074;28;20040;-74
2022/08/16 09:40:14;;;;;;;11.57;5.47;;;27.50;99.30;;;;;;5028150;28;20028;-74
2022/08/16 09:42:40;;;;;;;8.27;6.38;;;27.50;97.80;;;;;;5022808;28;20024;-75
2022/08/16 09:45:07;;;;;;;6.28;5.68;;;27.70;98.50;;;;;;5045935;28;20090;-75
2022/08/16 09:47:39;;;;;;;8.43;5.80;;;27.90;98.20;;;;;;5041818;28;20493;-75
2022/08/16 09:50:11;;;;;;;;;;;28.00;97.50;;;;;;5045970;28;20025;-75
2022/08/16 09:52:37;;;;;;;6.47;5.87;;;28.30;97.50;;;;;;5041518;28;20028;-75
2022/08/16 09:55:09;;;;;;;9.70;5.90;;;28.20;97.00;;;;;;5041685;28;20072;-76
2022/08/16 09:57:35;;;;;;;5.18;4.68;;;28.20;96.90;;;;;;5043799;28;20025;-75
2022/08/16 10:00:06;;;;;;;7.63;5.97;;;28.50;96.50;;;;;;5048513;28;20504;-75
2022/08/16 10:02:32;;;;;;;8.23;6.32;;;28.70;96.30;;;;;;5044946;28;20033;-76
2022/08/16 10:04:59;;;;;;;6.43;5.93;;;28.70;96.00;;;;;;5043912;28;20493;-76
2022/08/16 10:07:26;;;;;;;9.20;5.60;;;28.70;96.10;;;;;;5047031;28;20029;-76
2022/08/16 10:09:52;;;;;;;7.95;5.85;;;28.80;95.20;;;;;;5046098;28;20028;-76
2022/08/16 10:15:03;;;;;;;7.55;5.25;;;28.70;95.60;;;;;;5049351;28;20344;-76
2022/08/16 10:17:28;;;;;;;6.68;6.07;;;28.90;95.90;;;;;;5056021;28;20119;-77
2022/08/16 10:19:54;;;;;;;7.97;5.88;;;29.00;95.00;;;;;;5055593;28;20618;-78
2022/08/16 10:22:21;;;;;;;6.10;5.30;;;29.10;94.50;;;;;;5049137;28;20119;-76
2022/08/16 10:24:47;;;;;;;5.53;4.60;;;29.30;94.40;;;;;;5056142;28;20086;-76
2022/08/16 10:27:13;;;;;;;10.20;5.05;;;29.40;93.60;;;;;;5057017;28;20063;-76
2022/08/16 10:29:39;;;;;;;8.60;5.63;;;29.50;92.50;;;;;;5049183;28;20020;-76
2022/08/16 10:32:05;;;;;;;5.35;4.68;;;29.60;93.10;;;;;;5059234;28;20021;-76
2022/08/16 10:34:31;;;;;;;7.85;5.63;;;29.70;91.80;;;;;;5058287;28;20496;-75
2022/08/16 10:36:57;;;;;;;6.00;5.40;;;29.90;93.60;;;;;;5057970;28;20036;-76
2022/08/16 10:39:22;;;;;;;5.18;4.68;;;30.00;91.60;;;;;;5057714;28;20037;-76
2022/08/16 10:41:48;;;;;;;7.20;5.70;;;30.00;90.70;;;;;;5050496;28;20037;-75
2022/08/16 10:44:14;;;;;;;6.32;5.75;;;29.50;91.70;;;;;;5052392;28;20032;-76
2022/08/16 10:46:41;;;;;;;6.20;5.70;;;29.20;91.90;;;;;;5051227;28;20473;-77
2022/08/16 10:49:08;;;;;;;6.85;5.95;;;29.40;92.70;;;;;;5055945;28;20449;-76
2022/08/16 10:51:34;;;;;;;5.93;5.38;;;29.60;91.80;;;;;;5031570;28;20025;-76
2022/08/16 10:54:01;;;;;;;7.30;5.93;;;29.80;92.00;;;;;;5050023;28;20029;-76
2022/08/16 10:56:27;;;;;;;8.20;5.75;;;30.00;92.00;;;;;;5050450;28;20435;-76
2022/08/16 10:58:57;;;;;;;7.78;6.57;;;30.20;92.40;;;;;;5046180;28;20132;-76
2022/08/16 11:01:24;;;;;;;6.68;6.07;;;30.30;91.70;;;;;;5046449;28;20023;-77
2022/08/16 11:03:51;;;;;;;8.13;6.38;;;30.30;91.90;;;;;;5028928;28;20402;-77
2022/08/16 11:06:17;;;;;;;8.15;6.03;;;30.10;91.30;;;;;;5049693;28;20025;-76
2022/08/16 11:08:42;;;;;;;7.35;5.85;;;30.10;91.90;;;;;;5054081;28;20116;-75
2022/08/16 11:11:08;;;;;;;5.30;4.80;;;30.10;91.80;;;;;;5052221;28;20035;-75
2022/08/16 11:13:34;;;;;;;6.53;6.03;;;29.90;92.20;;;;;;5054183;28;20073;-75
2022/08/16 11:16:00;;;;;;;7.03;5.70;;;29.70;91.60;;;;;;5055098;28;20429;-75
2022/08/16 11:18:28;;;;;;;6.30;5.70;;;29.60;92.10;;;;;;5053538;28;20433;-76
2022/08/16 11:20:55;;;;;;;7.10;5.07;;;29.30;92.00;;;;;;5048836;28;20037;-75
2022/08/16 11:23:22;;;;;;;7.88;6.00;;;29.30;91.10;;;;;;5030011;28;20025;-75
2022/08/16 11:25:47;;;;;;;5.80;5.20;;;29.20;91.70;;;;;;5054005;28;20051;-75
2022/08/16 11:28:13;;;;;;;8.20;5.38;;;29.10;91.90;;;;;;5050531;28;20441;-76
2022/08/16 11:30:40;;;;;;;5.95;5.45;;;29.20;91.90;;;;;;5056416;28;20032;-76
2022/08/16 11:33:09;;;;;;;6.07;5.55;;;29.20;92.10;;;;;;5034324;28;20020;-75
2022/08/16 11:35:35;;;;;;;9.95;5.45;;;29.20;92.40;;;;;;5046007;28;20082;-76
2022/08/16 11:38:13;;;;;;;6.43;5.82;;;29.20;92.00;;;;;;5044504;28;20028;-76
2022/08/16 11:40:50;;;;;;;7.53;6.00;;;29.10;91.70;;;;;;5026432;28;20033;-76
2022/08/16 11:43:20;;;;;;;7.30;5.80;;;29.10;91.20;;;;;;5047136;28;20074;-76
2022/08/16 11:45:47;;;;;;;5.80;5.30;;;28.90;91.10;;;;;;5045251;28;20073;-75
2022/08/16 11:48:14;;;;;;;6.20;5.60;;;29.10;91.00;;;;;;5048362;28;20021;-76
2022/08/16 11:50:42;;;;;;;6.20;5.43;;;29.30;91.70;;;;;;5050779;28;20079;-75
2022/08/16 11:53:08;;;;;;;6.45;5.85;;;29.70;91.30;;;;;;5048803;28;20028;-75
2022/08/16 11:55:36;;;;;;;5.65;5.15;;;30.00;92.20;;;;;;5052434;28;20052;-76
2022/08/16 11:58:02;;;;;;;6.55;5.55;;;30.00;90.70;;;;;;5039442;28;20060;-75
2022/08/16 12:00:29;;;;;;;7.53;5.20;;;30.20;91.60;;;;;;5056768;28;20021;-75
2022/08/16 12:02:55;;;;;;;6.95;5.38;;;30.30;89.00;;;;;;5054882;28;20060;-74
2022/08/16 12:05:21;;;;;;;6.72;5.35;;;30.30;90.60;;;;;;5047394;28;20091;-76
2022/08/16 12:07:47;;;;;;;8.15;5.60;;;30.10;90.00;;;;;;5053120;28;20033;-74
2022/08/16 12:10:16;;;;;;;6.63;5.97;;;29.80;90.70;;;;;;5056814;28;20021;-74
2022/08/16 12:12:42;;;;;;;5.50;5.00;;;29.60;90.60;;;;;;5037832;28;20044;-75
2022/08/16 12:15:09;;;;;;;5.88;5.25;;;29.60;90.70;;;;;;5043209;28;20021;-75
2022/08/16 12:17:35;;;;;;;8.43;4.43;;;29.50;90.20;;;;;;5053065;28;20029;-74
2022/08/16 12:20:05;;;;;;;6.65;5.07;;;29.60;90.10;;;;;;5043911;28;20041;-74
2022/08/16 12:22:31;;;;;;;7.00;5.50;;;29.80;89.70;;;;;;5042329;28;20966;-75
2022/08/16 12:24:56;;;;;;;7.45;5.70;;;29.90;90.00;;;;;;5053110;28;20025;-74
2022/08/16 12:27:24;;;;;;;9.23;5.57;;;29.90;90.30;;;;;;5048932;28;20021;-74
2022/08/16 12:29:53;;;;;;;6.90;5.15;;;30.00;89.40;;;;;;5043591;28;20041;-74
2022/08/16 12:32:19;;;;;;;6.82;5.63;;;30.30;90.30;;;;;;5042264;28;20469;-74
2022/08/16 12:34:45;;;;;;;8.88;5.65;;;30.40;88.20;;;;;;5039030;28;20032;-74
2022/08/16 12:37:12;;;;;;;9.15;5.75;;;30.50;90.10;;;;;;5042555;28;20104;-77
2022/08/16 12:39:38;;;;;;;9.30;5.50;;;30.40;88.80;;;;;;5042101;28;20076;-76
2022/08/16 12:42:04;;;;;;;5.47;4.63;;;30.60;89.00;;;;;;5028293;28;20470;-76
2022/08/16 12:44:30;;;;;;;5.88;5.20;;;30.80;88.90;;;;;;5048538;28;20029;-76